Time;durP1;ratioP1;P1;durP2;ratioP2;P2;SDS_P1;SDS_P2;PMS_P1;PMS_P2;Temp;Humidity;BMP_temperature;BMP_pressure;BME280_temperature;BME280_humidity;BME280_pressure;Samples;Min_cycle;Max_cycle;Signal;HPM_P1;HPM_P2
2023/03/17 00:01:13;;;;;;;33.78;16.80;;;;;;;;;;4926631;29;20311;-85
2023/03/17 00:03:43;;;;;;;32.72;16.50;;;;;;;;;;4942728;29;20303;-85
2023/03/17 00:06:14;;;;;;;77.82;28.05;;;;;;;;;;4943027;29;20212;-84
2023/03/17 00:08:44;;;;;;;32.97;14.02;;;;;;;;;;4943661;29;20696;-84
2023/03/17 00:11:15;;;;;;;36.47;18.75;;;;;;;;;;4945028;29;20299;-85
2023/03/17 00:13:44;;;;;;;39.00;18.30;;;;;;;;;;4964169;28;20243;-85
2023/03/17 00:16:16;;;;;;;33.67;16.85;;;;;;;;;;4946818;29;20214;-85
2023/03/17 00:18:45;;;;;;;29.80;14.63;;;;;;;;;;4932394;29;20275;-85
2023/03/17 00:21:14;;;;;;;26.80;12.55;;;;;;;;;;4964828;29;20259;-85
2023/03/17 00:23:44;;;;;;;19.98;11.00;;;;;;;;;;4963679;29;20259;-84
2023/03/17 00:26:13;;;;;;;10.07;7.90;;;;;;;;;;4930336;29;20202;-84
2023/03/17 00:28:43;;;;;;;10.20;7.70;;;;;;;;;;4946298;28;20231;-85
2023/03/17 00:31:13;;;;;;;9.73;7.75;;;;;;;;;;4963921;29;20279;-84
2023/03/17 00:33:42;;;;;;;12.52;7.03;;;;;;;;;;4963552;28;20286;-85
2023/03/17 00:36:13;;;;;;;9.32;6.63;;;;;;;;;;4944934;29;20248;-85
2023/03/17 00:38:41;;;;;;;7.30;6.55;;;;;;;;;;4944738;29;20258;-85
2023/03/17 00:41:11;;;;;;;10.27;7.60;;;;;;;;;;4943940;29;20277;-85
2023/03/17 00:43:41;;;;;;;8.30;6.70;;;;;;;;;;4945375;28;20308;-85
2023/03/17 00:46:15;;;;;;;7.80;6.60;;;;;;;;;;4943478;28;20209;-85
2023/03/17 00:48:44;;;;;;;8.43;7.45;;;;;;;;;;4944823;29;20217;-84
2023/03/17 00:51:14;;;;;;;8.05;7.25;;;;;;;;;;4942757;29;20292;-84
2023/03/17 00:53:42;;;;;;;8.35;7.50;;;;;;;;;;4939104;29;20281;-84
2023/03/17 00:56:14;;;;;;;14.05;7.35;;;;;;;;;;4908531;29;20309;-84
2023/03/17 00:58:42;;;;;;;12.63;7.93;;;;;;;;;;4909070;29;20275;-85
2023/03/17 01:01:11;;;;;;;10.45;8.02;;;;;;;;;;4925068;29;20285;-84
2023/03/17 01:03:41;;;;;;;8.52;7.72;;;;;;;;;;4924364;29;20328;-85
2023/03/17 01:10:02;;;;;;;9.82;7.90;;;;;;;;;;4924894;29;20292;-84
2023/03/17 01:12:30;;;;;;;8.90;8.00;;;;;;;;;;4925532;29;20613;-85
2023/03/17 01:14:59;;;;;;;7.78;7.07;;;;;;;;;;4925378;29;20216;-84
2023/03/17 01:17:27;;;;;;;15.93;7.38;;;;;;;;;;4893279;29;20290;-85
2023/03/17 01:19:58;;;;;;;10.13;7.80;;;;;;;;;;4909078;29;20258;-85
2023/03/17 01:22:26;;;;;;;14.25;9.52;;;;;;;;;;4925716;29;20597;-85
2023/03/17 01:24:55;;;;;;;17.02;9.88;;;;;;;;;;4924265;29;20296;-85
2023/03/17 01:27:24;;;;;;;18.10;10.13;;;;;;;;;;4907595;29;20284;-85
2023/03/17 01:29:53;;;;;;;8.93;7.60;;;;;;;;;;4905932;29;20308;-85
2023/03/17 01:32:21;;;;;;;16.77;10.23;;;;;;;;;;4906154;29;20348;-85
2023/03/17 01:34:50;;;;;;;21.00;10.38;;;;;;;;;;4922337;29;20314;-84
2023/03/17 01:37:20;;;;;;;18.02;8.35;;;;;;;;;;4944252;29;20284;-85
2023/03/17 01:39:48;;;;;;;15.13;9.90;;;;;;;;;;4927443;29;20902;-85
2023/03/17 01:42:16;;;;;;;13.25;8.52;;;;;;;;;;4943275;29;20215;-85
2023/03/17 01:44:58;;;;;;;13.23;9.50;;;;;;;;;;4959017;29;20267;-85
2023/03/17 01:47:29;;;;;;;10.02;7.25;;;;;;;;;;4961947;29;20271;-85
2023/03/17 01:49:59;;;;;;;8.07;7.03;;;;;;;;;;4943309;29;20235;-84
2023/03/17 01:52:29;;;;;;;7.50;6.70;;;;;;;;;;4962241;29;20351;-84
2023/03/17 01:54:59;;;;;;;12.35;7.35;;;;;;;;;;4943553;28;20282;-84
2023/03/17 01:57:30;;;;;;;7.85;6.80;;;;;;;;;;4982569;28;20294;-85
2023/03/17 02:00:01;;;;;;;10.35;7.72;;;;;;;;;;4963990;28;20187;-85
2023/03/17 02:02:33;;;;;;;9.18;8.18;;;;;;;;;;4963945;28;20184;-84
2023/03/17 02:05:02;;;;;;;7.45;6.82;;;;;;;;;;4961654;28;20203;-84
2023/03/17 02:07:32;;;;;;;7.57;6.78;;;;;;;;;;4961119;28;20227;-85
2023/03/17 02:10:01;;;;;;;9.90;7.22;;;;;;;;;;4977083;28;20227;-85
2023/03/17 02:12:30;;;;;;;8.07;7.03;;;;;;;;;;4978530;28;20359;-84
2023/03/17 02:14:58;;;;;;;8.60;7.13;;;;;;;;;;4961504;28;20206;-85
2023/03/17 02:17:28;;;;;;;8.38;6.63;;;;;;;;;;4961652;28;20357;-84
2023/03/17 02:19:57;;;;;;;8.63;7.40;;;;;;;;;;4978728;28;20263;-85
2023/03/17 02:22:27;;;;;;;9.20;7.05;;;;;;;;;;4980710;28;20285;-83
2023/03/17 02:24:57;;;;;;;8.77;6.93;;;;;;;;;;4980085;28;20290;-84
2023/03/17 02:27:28;;;;;;;11.35;6.90;;;;;;;;;;4979730;28;20303;-84
2023/03/17 02:29:56;;;;;;;8.25;7.03;;;;;;;;;;4961528;28;20219;-84
2023/03/17 02:32:25;;;;;;;9.07;6.10;;;;;;;;;;4978956;28;20267;-85
2023/03/17 02:34:53;;;;;;;8.27;6.65;;;;;;;;;;4948804;29;20325;-86
2023/03/17 02:37:22;;;;;;;10.27;7.35;;;;;;;;;;4938482;29;20264;-85
2023/03/17 02:39:52;;;;;;;9.55;6.40;;;;;;;;;;4940132;29;20281;-86
2023/03/17 02:42:21;;;;;;;6.97;6.28;;;;;;;;;;4939976;29;20291;-86
2023/03/17 02:44:49;;;;;;;8.25;6.80;;;;;;;;;;4942028;29;20696;-85
2023/03/17 02:47:20;;;;;;;8.55;7.22;;;;;;;;;;4941096;29;20252;-86
2023/03/17 02:49:50;;;;;;;7.47;6.30;;;;;;;;;;4942063;29;20280;-86
2023/03/17 02:52:18;;;;;;;9.05;6.65;;;;;;;;;;4941086;29;20291;-86
2023/03/17 02:54:46;;;;;;;8.82;6.78;;;;;;;;;;4921874;29;20292;-85
2023/03/17 02:57:16;;;;;;;6.55;5.95;;;;;;;;;;4923604;29;20260;-85
2023/03/17 02:59:44;;;;;;;7.15;6.43;;;;;;;;;;4924505;29;20346;-85
2023/03/17 03:02:13;;;;;;;7.32;6.68;;;;;;;;;;4923248;29;20352;-85
2023/03/17 03:04:41;;;;;;;7.25;6.55;;;;;;;;;;4906233;29;20301;-86
2023/03/17 03:07:10;;;;;;;8.45;6.85;;;;;;;;;;4921044;29;20594;-85
2023/03/17 03:09:40;;;;;;;9.20;7.05;;;;;;;;;;4921167;29;20221;-85
2023/03/17 03:12:10;;;;;;;12.27;7.40;;;;;;;;;;4922136;29;20696;-85
2023/03/17 03:14:39;;;;;;;7.72;6.93;;;;;;;;;;4924214;29;20295;-85
2023/03/17 03:17:08;;;;;;;9.18;6.25;;;;;;;;;;4922971;29;20582;-85
2023/03/17 03:19:37;;;;;;;7.32;6.63;;;;;;;;;;4923982;29;20292;-85
2023/03/17 03:22:05;;;;;;;6.60;6.00;;;;;;;;;;4922332;29;20288;-86
2023/03/17 03:24:33;;;;;;;7.18;6.47;;;;;;;;;;4924328;29;20279;-85
2023/03/17 03:27:01;;;;;;;7.57;6.15;;;;;;;;;;4941713;29;20305;-85
2023/03/17 03:29:30;;;;;;;12.70;7.30;;;;;;;;;;4942948;29;20661;-85
2023/03/17 03:32:00;;;;;;;8.07;7.20;;;;;;;;;;4942659;29;20200;-85
2023/03/17 03:34:29;;;;;;;7.30;6.47;;;;;;;;;;4941289;29;20280;-85
2023/03/17 03:36:57;;;;;;;10.70;8.00;;;;;;;;;;4941780;29;20281;-85
2023/03/17 03:39:26;;;;;;;9.07;7.82;;;;;;;;;;4942285;29;20200;-85
2023/03/17 03:41:56;;;;;;;9.70;7.10;;;;;;;;;;4940198;29;20279;-85
2023/03/17 03:44:24;;;;;;;7.00;6.30;;;;;;;;;;4940461;29;20276;-85
2023/03/17 03:46:52;;;;;;;9.20;7.00;;;;;;;;;;4941222;29;20193;-85
2023/03/17 03:49:23;;;;;;;10.27;7.38;;;;;;;;;;4944148;29;20216;-85
2023/03/17 03:51:51;;;;;;;11.20;6.80;;;;;;;;;;4945490;29;20276;-86
2023/03/17 03:54:20;;;;;;;9.80;6.38;;;;;;;;;;4939521;29;20265;-85
2023/03/17 03:56:48;;;;;;;7.90;7.10;;;;;;;;;;4945472;29;20260;-85
2023/03/17 03:59:16;;;;;;;8.60;7.70;;;;;;;;;;4945884;29;20256;-86
2023/03/17 04:01:45;;;;;;;6.75;6.00;;;;;;;;;;4945076;29;20275;-86
2023/03/17 04:04:13;;;;;;;7.30;6.60;;;;;;;;;;4941528;29;20205;-85
2023/03/17 04:06:43;;;;;;;8.27;6.40;;;;;;;;;;4944191;29;20293;-84
2023/03/17 04:09:12;;;;;;;7.35;6.63;;;;;;;;;;4945572;29;20296;-85
2023/03/17 04:11:40;;;;;;;7.88;6.43;;;;;;;;;;4946377;29;20286;-85
2023/03/17 04:14:12;;;;;;;7.35;6.65;;;;;;;;;;4943151;29;20204;-85
2023/03/17 04:16:40;;;;;;;9.52;6.47;;;;;;;;;;4945650;29;20291;-85
2023/03/17 04:19:09;;;;;;;11.45;6.40;;;;;;;;;;4931425;29;20681;-85
2023/03/17 04:21:38;;;;;;;9.70;6.65;;;;;;;;;;4926917;29;20288;-85
2023/03/17 04:24:09;;;;;;;10.15;7.30;;;;;;;;;;4925633;29;20635;-85
2023/03/17 04:26:37;;;;;;;7.32;6.50;;;;;;;;;;4926710;29;20276;-85
2023/03/17 04:29:06;;;;;;;9.32;7.20;;;;;;;;;;4924289;29;20300;-85
2023/03/17 04:31:35;;;;;;;7.30;5.90;;;;;;;;;;4939796;29;20311;-85
2023/03/17 04:34:04;;;;;;;19.17;10.02;;;;;;;;;;4950144;28;20775;-85
2023/03/17 04:36:32;;;;;;;10.82;9.73;;;;;;;;;;4965939;28;20231;-85
2023/03/17 04:39:00;;;;;;;11.77;8.23;;;;;;;;;;4950124;28;20248;-85
2023/03/17 04:41:32;;;;;;;7.72;6.65;;;;;;;;;;4982718;28;20231;-85
2023/03/17 04:44:01;;;;;;;9.52;7.15;;;;;;;;;;4966342;28;20259;-85
2023/03/17 04:46:29;;;;;;;9.02;6.60;;;;;;;;;;4966102;28;20295;-85
2023/03/17 04:48:57;;;;;;;9.57;6.43;;;;;;;;;;4982461;28;20242;-85
2023/03/17 04:51:26;;;;;;;7.10;6.50;;;;;;;;;;4981483;28;20362;-85
2023/03/17 04:53:54;;;;;;;9.15;6.57;;;;;;;;;;4982567;28;20352;-85
2023/03/17 04:56:23;;;;;;;10.55;6.65;;;;;;;;;;4963673;28;20680;-85
2023/03/17 04:58:52;;;;;;;7.75;6.60;;;;;;;;;;4964290;28;20270;-85
2023/03/17 05:01:21;;;;;;;8.65;6.78;;;;;;;;;;4962727;28;20265;-85
2023/03/17 05:03:50;;;;;;;7.38;6.68;;;;;;;;;;4979870;28;20287;-85
2023/03/17 05:06:18;;;;;;;7.80;6.93;;;;;;;;;;4961170;28;20210;-85
2023/03/17 05:08:47;;;;;;;7.90;6.20;;;;;;;;;;4945149;29;20263;-85
2023/03/17 05:11:15;;;;;;;9.57;7.55;;;;;;;;;;4962272;28;20249;-85
2023/03/17 05:13:43;;;;;;;9.27;7.80;;;;;;;;;;4964638;28;20287;-85
2023/03/17 05:16:13;;;;;;;8.68;6.60;;;;;;;;;;4981345;28;20274;-85
2023/03/17 05:18:42;;;;;;;8.40;6.95;;;;;;;;;;4966314;28;20400;-85
2023/03/17 05:21:11;;;;;;;10.70;6.63;;;;;;;;;;4969080;28;20283;-85
2023/03/17 05:23:40;;;;;;;7.63;6.60;;;;;;;;;;4963740;29;20623;-85
2023/03/17 05:26:09;;;;;;;12.18;6.78;;;;;;;;;;4945934;29;20287;-85
2023/03/17 05:28:37;;;;;;;7.40;6.68;;;;;;;;;;4962434;29;20263;-85
2023/03/17 05:31:05;;;;;;;20.00;6.80;;;;;;;;;;4960800;29;20234;-85
2023/03/17 05:33:36;;;;;;;9.13;7.18;;;;;;;;;;4959980;28;20278;-85
2023/03/17 05:36:05;;;;;;;10.63;6.75;;;;;;;;;;4979635;28;20785;-85
2023/03/17 05:38:33;;;;;;;12.35;7.07;;;;;;;;;;4963965;28;20278;-84
2023/03/17 05:41:02;;;;;;;7.43;6.72;;;;;;;;;;4982028;28;20286;-84
2023/03/17 05:43:31;;;;;;;11.10;7.07;;;;;;;;;;4965217;28;20294;-85
2023/03/17 05:45:59;;;;;;;9.93;7.07;;;;;;;;;;4965286;28;20726;-85
2023/03/17 05:48:27;;;;;;;9.93;7.22;;;;;;;;;;4982493;28;20259;-85
2023/03/17 05:50:57;;;;;;;6.97;6.32;;;;;;;;;;4963728;28;20301;-85
2023/03/17 05:53:25;;;;;;;7.10;6.45;;;;;;;;;;4965085;28;20203;-85
2023/03/17 05:55:54;;;;;;;10.25;7.03;;;;;;;;;;4965381;28;20355;-85
2023/03/17 05:58:22;;;;;;;9.48;6.88;;;;;;;;;;4982909;28;20267;-85
2023/03/17 06:00:50;;;;;;;7.80;6.00;;;;;;;;;;4982670;28;20266;-85
2023/03/17 06:03:20;;;;;;;7.65;6.80;;;;;;;;;;4983340;28;20355;-85
2023/03/17 06:05:48;;;;;;;7.93;7.13;;;;;;;;;;4982582;28;20286;-85
2023/03/17 06:08:18;;;;;;;8.70;6.43;;;;;;;;;;4964427;28;20342;-85
2023/03/17 06:10:47;;;;;;;8.10;7.32;;;;;;;;;;4964299;28;20306;-85
2023/03/17 06:13:15;;;;;;;7.70;6.57;;;;;;;;;;4964604;28;20285;-86
2023/03/17 06:15:44;;;;;;;8.88;6.82;;;;;;;;;;4983370;28;20286;-85
2023/03/17 06:18:13;;;;;;;7.20;6.47;;;;;;;;;;4966026;28;20754;-85
2023/03/17 06:20:41;;;;;;;9.80;7.55;;;;;;;;;;4983620;28;20207;-85
2023/03/17 06:23:10;;;;;;;8.48;6.95;;;;;;;;;;4985166;28;20227;-85
2023/03/17 06:25:40;;;;;;;11.00;6.38;;;;;;;;;;4967277;28;20255;-85
2023/03/17 06:28:09;;;;;;;7.75;5.90;;;;;;;;;;4991900;28;20215;-85
2023/03/17 06:30:37;;;;;;;10.10;5.65;;;;;;;;;;4996151;28;20238;-85
2023/03/17 06:33:05;;;;;;;8.43;6.25;;;;;;;;;;4963253;28;20231;-84
2023/03/17 06:35:34;;;;;;;8.00;7.25;;;;;;;;;;4986753;28;20295;-85
2023/03/17 06:38:03;;;;;;;9.75;6.32;;;;;;;;;;4950681;29;20283;-86
2023/03/17 06:40:32;;;;;;;10.15;7.30;;;;;;;;;;4976721;28;20176;-85
2023/03/17 06:43:02;;;;;;;8.65;7.15;;;;;;;;;;4965199;28;20255;-85
2023/03/17 06:45:32;;;;;;;10.43;6.72;;;;;;;;;;4948740;28;20263;-85
2023/03/17 06:48:01;;;;;;;7.50;6.57;;;;;;;;;;4943897;28;20270;-84
2023/03/17 06:50:29;;;;;;;6.05;5.55;;;;;;;;;;4964946;28;20297;-85
2023/03/17 06:52:58;;;;;;;6.93;5.63;;;;;;;;;;4964034;28;20310;-86
2023/03/17 06:55:27;;;;;;;9.77;7.28;;;;;;;;;;4957552;29;20693;-84
2023/03/17 06:57:55;;;;;;;6.80;6.15;;;;;;;;;;4945889;29;20263;-84
2023/03/17 07:00:26;;;;;;;7.63;6.00;;;;;;;;;;4945605;29;20296;-85
2023/03/17 07:02:55;;;;;;;8.60;6.18;;;;;;;;;;4945798;29;20271;-84
2023/03/17 07:05:23;;;;;;;12.50;7.10;;;;;;;;;;4947883;28;20322;-85
2023/03/17 07:07:52;;;;;;;18.17;7.20;;;;;;;;;;4964247;28;20305;-85
2023/03/17 07:10:21;;;;;;;7.47;6.75;;;;;;;;;;4977190;28;20287;-84
2023/03/17 07:12:50;;;;;;;11.70;7.20;;;;;;;;;;4959042;28;20219;-85
2023/03/17 07:15:19;;;;;;;13.50;7.93;;;;;;;;;;4976530;28;20207;-85
2023/03/17 07:17:53;;;;;;;12.75;8.75;;;;;;;;;;4965303;28;20191;-84
2023/03/17 07:20:21;;;;;;;13.15;9.30;;;;;;;;;;4978937;28;20612;-84
2023/03/17 07:22:50;;;;;;;18.52;9.30;;;;;;;;;;4980228;28;20239;-86
2023/03/17 07:25:18;;;;;;;15.40;10.52;;;;;;;;;;4966322;28;20203;-85
2023/03/17 07:27:47;;;;;;;15.65;9.90;;;;;;;;;;4983129;28;20286;-85
2023/03/17 07:30:17;;;;;;;25.23;12.75;;;;;;;;;;4963422;28;20245;-86
2023/03/17 07:32:45;;;;;;;19.88;13.05;;;;;;;;;;4963711;28;20562;-86
2023/03/17 07:35:15;;;;;;;53.40;29.40;;;;;;;;;;4963879;28;20722;-86
2023/03/17 07:37:43;;;;;;;34.70;21.33;;;;;;;;;;4948325;28;20286;-85
2023/03/17 07:40:12;;;;;;;26.05;15.48;;;;;;;;;;4963553;28;20212;-85
2023/03/17 07:42:40;;;;;;;16.80;11.25;;;;;;;;;;4965878;28;20387;-86
2023/03/17 07:45:09;;;;;;;13.27;10.15;;;;;;;;;;4956030;28;20291;-85
2023/03/17 07:47:38;;;;;;;28.90;19.30;;;;;;;;;;4941532;28;20196;-86
2023/03/17 07:50:06;;;;;;;26.85;15.75;;;;;;;;;;4957353;28;20259;-86
2023/03/17 07:52:36;;;;;;;21.95;13.25;;;;;;;;;;4981988;28;20219;-85
2023/03/17 07:55:09;;;;;;;19.33;11.18;;;;;;;;;;4961565;28;20210;-85
2023/03/17 07:57:37;;;;;;;14.52;9.68;;;;;;;;;;4979629;28;20192;-86
2023/03/17 08:00:08;;;;;;;13.80;8.50;;;;;;;;;;4982438;28;20297;-86
2023/03/17 08:02:39;;;;;;;14.80;8.85;;;;;;;;;;4986657;28;20293;-87
2023/03/17 08:05:08;;;;;;;8.48;7.13;;;;;;;;;;4985639;28;20252;-88
2023/03/17 08:07:38;;;;;;;7.47;6.70;;;;;;;;;;4985569;28;20279;-88
2023/03/17 08:10:07;;;;;;;6.80;6.20;;;;;;;;;;4987544;28;20259;-86
2023/03/17 08:12:36;;;;;;;9.18;7.85;;;;;;;;;;4969371;28;20222;-87
2023/03/17 08:15:05;;;;;;;7.90;7.00;;;;;;;;;;4965063;28;20286;-88
2023/03/17 08:17:33;;;;;;;12.02;7.03;;;;;;;;;;4986078;28;20211;-86
2023/03/17 08:20:03;;;;;;;8.15;7.45;;;;;;;;;;4949415;28;20250;-87
2023/03/17 08:22:33;;;;;;;8.25;7.45;;;;;;;;;;4966619;28;20192;-86
2023/03/17 08:25:03;;;;;;;9.55;6.65;;;;;;;;;;4967732;28;20334;-88
2023/03/17 08:27:32;;;;;;;9.88;6.95;;;;;;;;;;4984058;28;20665;-86
2023/03/17 08:30:01;;;;;;;12.10;6.85;;;;;;;;;;4968481;28;20196;-86
2023/03/17 08:32:29;;;;;;;8.68;7.00;;;;;;;;;;4951101;28;20302;-88
2023/03/17 08:34:57;;;;;;;12.60;6.40;;;;;;;;;;4966318;28;20302;-86
2023/03/17 08:37:26;;;;;;;7.35;6.63;;;;;;;;;;4981791;28;20767;-85
2023/03/17 08:39:54;;;;;;;8.80;7.20;;;;;;;;;;4972792;28;20345;-86
2023/03/17 08:42:24;;;;;;;9.00;7.13;;;;;;;;;;4966022;28;20282;-86
2023/03/17 08:44:52;;;;;;;9.07;8.10;;;;;;;;;;4980090;28;20291;-85
2023/03/17 08:47:20;;;;;;;8.43;7.28;;;;;;;;;;4963005;28;20213;-86
2023/03/17 08:49:49;;;;;;;11.35;8.73;;;;;;;;;;4981357;28;20215;-87
2023/03/17 08:52:17;;;;;;;8.20;7.43;;;;;;;;;;4962236;28;20219;-86
2023/03/17 08:54:45;;;;;;;8.82;8.00;;;;;;;;;;4963641;28;20684;-86
2023/03/17 08:57:14;;;;;;;9.45;7.60;;;;;;;;;;4963596;28;20234;-87
2023/03/17 08:59:44;;;;;;;9.90;8.57;;;;;;;;;;4981314;28;20270;-88
2023/03/17 09:02:13;;;;;;;9.50;8.32;;;;;;;;;;4964738;28;20200;-89
2023/03/17 09:04:43;;;;;;;9.02;7.80;;;;;;;;;;4947972;28;20274;-87
2023/03/17 09:07:11;;;;;;;10.07;9.20;;;;;;;;;;4959169;29;20285;-87
2023/03/17 09:09:40;;;;;;;9.50;8.77;;;;;;;;;;4970036;28;20283;-89
2023/03/17 09:12:10;;;;;;;9.80;8.55;;;;;;;;;;4979595;28;20233;-87
2023/03/17 09:14:41;;;;;;;10.45;8.55;;;;;;;;;;4982426;28;20231;-86
2023/03/17 09:17:11;;;;;;;9.80;9.10;;;;;;;;;;4947522;28;20760;-88
2023/03/17 09:19:40;;;;;;;10.73;9.82;;;;;;;;;;4981607;28;20350;-89
2023/03/17 09:22:08;;;;;;;10.40;9.60;;;;;;;;;;4978944;28;20415;-87
2023/03/17 09:24:36;;;;;;;17.02;9.52;;;;;;;;;;4962715;28;20214;-88
2023/03/17 09:27:05;;;;;;;12.70;11.60;;;;;;;;;;4946418;28;20694;-88
2023/03/17 09:29:34;;;;;;;12.57;10.65;;;;;;;;;;4980842;28;20291;-87
2023/03/17 09:32:02;;;;;;;11.48;10.68;;;;;;;;;;4962006;28;20238;-87
2023/03/17 09:34:34;;;;;;;11.97;11.17;;;;;;;;;;4975333;28;20291;-88
2023/03/17 09:37:02;;;;;;;12.53;11.73;;;;;;;;;;4975606;28;20617;-88
2023/03/17 09:39:32;;;;;;;13.50;12.10;;;;;;;;;;4962636;28;20585;-87
2023/03/17 09:42:08;;;;;;;17.10;12.27;;;;;;;;;;4979029;28;20733;-86
2023/03/17 09:44:46;;;;;;;13.00;12.20;;;;;;;;;;4969598;28;20713;-87
2023/03/17 09:47:27;;;;;;;13.50;12.50;;;;;;;;;;4964743;28;20597;-87
2023/03/17 09:49:58;;;;;;;12.20;11.50;;;;;;;;;;4946519;28;21203;-87
2023/03/17 09:52:29;;;;;;;12.77;12.07;;;;;;;;;;4979561;28;20735;-88
2023/03/17 09:54:59;;;;;;;13.60;12.83;;;;;;;;;;4979991;28;21775;-88
2023/03/17 09:57:30;;;;;;;14.87;13.37;;;;;;;;;;4961529;28;20681;-89
2023/03/17 10:00:05;;;;;;;14.50;13.47;;;;;;;;;;4964140;28;20609;-88
2023/03/17 10:02:36;;;;;;;12.50;11.70;;;;;;;;;;4976476;28;20800;-85
2023/03/17 10:05:11;;;;;;;13.83;13.00;;;;;;;;;;4977211;28;20278;-86
2023/03/17 10:07:42;;;;;;;13.73;12.93;;;;;;;;;;4929130;29;20744;-87
2023/03/17 10:10:17;;;;;;;15.50;14.60;;;;;;;;;;4973942;28;21076;-88
2023/03/17 10:12:48;;;;;;;14.93;14.03;;;;;;;;;;4980029;28;21295;-85
2023/03/17 10:15:18;;;;;;;15.00;14.10;;;;;;;;;;4958623;28;20722;-86
2023/03/17 10:17:47;;;;;;;14.37;13.57;;;;;;;;;;4947508;28;20707;-87
2023/03/17 10:20:19;;;;;;;14.77;13.90;;;;;;;;;;4972658;28;20705;-83
2023/03/17 10:22:51;;;;;;;14.80;13.90;;;;;;;;;;4970368;28;20712;-86
2023/03/17 10:25:20;;;;;;;14.43;13.63;;;;;;;;;;4952733;28;20758;-86
2023/03/17 10:27:52;;;;;;;14.83;14.03;;;;;;;;;;4968549;28;20722;-86
2023/03/17 10:30:22;;;;;;;15.30;14.50;;;;;;;;;;4966533;28;20700;-86
2023/03/17 10:32:51;;;;;;;14.80;13.87;;;;;;;;;;4960475;28;20681;-88
2023/03/17 10:35:24;;;;;;;16.20;15.10;;;;;;;;;;4984817;28;20721;-87
2023/03/17 10:37:52;;;;;;;17.33;16.07;;;;;;;;;;4961738;28;20706;-88
2023/03/17 10:40:23;;;;;;;15.37;14.00;;;;;;;;;;4951030;28;21260;-87
2023/03/17 10:42:54;;;;;;;14.90;13.97;;;;;;;;;;4984775;28;20679;-88
2023/03/17 10:45:27;;;;;;;16.17;14.97;;;;;;;;;;4965556;28;20702;-88
2023/03/17 10:47:57;;;;;;;14.50;13.60;;;;;;;;;;4984693;28;20575;-87
2023/03/17 10:50:29;;;;;;;15.07;14.27;;;;;;;;;;4984996;28;20682;-86
2023/03/17 10:52:59;;;;;;;15.33;14.43;;;;;;;;;;4968058;28;20722;-86
2023/03/17 10:55:29;;;;;;;15.47;14.37;;;;;;;;;;4968282;28;21252;-88
2023/03/17 10:58:02;;;;;;;14.83;13.83;;;;;;;;;;4981984;28;20726;-88
2023/03/17 11:00:34;;;;;;;14.40;13.53;;;;;;;;;;4986565;28;20708;-87
2023/03/17 11:03:05;;;;;;;14.67;13.67;;;;;;;;;;4960046;28;21264;-87
2023/03/17 11:05:35;;;;;;;14.60;13.47;;;;;;;;;;4971421;28;20725;-87
2023/03/17 11:08:10;;;;;;;14.33;13.53;;;;;;;;;;4933917;28;20802;-87
2023/03/17 11:10:40;;;;;;;15.17;14.00;;;;;;;;;;4955566;28;20698;-87
2023/03/17 11:13:09;;;;;;;15.40;14.23;;;;;;;;;;4969553;28;20661;-87
2023/03/17 11:15:41;;;;;;;15.37;14.50;;;;;;;;;;4955363;28;20626;-86
2023/03/17 11:18:14;;;;;;;15.47;14.40;;;;;;;;;;4982369;28;20714;-87
2023/03/17 11:20:55;;;;;;;16.17;15.23;;;;;;;;;;4978617;28;20681;-86
2023/03/17 11:23:33;;;;;;;16.20;14.93;;;;;;;;;;4965188;28;21184;-87
2023/03/17 11:26:07;;;;;;;16.87;15.73;;;;;;;;;;4967224;28;20765;-88
2023/03/17 11:28:38;;;;;;;15.57;14.57;;;;;;;;;;4969937;28;20705;-88
2023/03/17 11:31:08;;;;;;;15.80;14.80;;;;;;;;;;4969331;28;20713;-88
2023/03/17 11:33:40;;;;;;;16.73;14.80;;;;;;;;;;4969571;28;20722;-89
2023/03/17 11:36:14;;;;;;;15.77;14.17;;;;;;;;;;4949563;28;20768;-87
2023/03/17 11:38:50;;;;;;;15.50;14.53;;;;;;;;;;4929181;29;21178;-87
2023/03/17 11:41:33;;;;;;;17.50;16.20;;;;;;;;;;4918761;29;20666;-87
2023/03/17 11:44:08;;;;;;;16.33;15.13;;;;;;;;;;4947137;29;20687;-86
2023/03/17 11:46:37;;;;;;;15.57;14.67;;;;;;;;;;4946000;29;20719;-87
2023/03/17 11:49:11;;;;;;;14.80;13.90;;;;;;;;;;4935531;29;20780;-87
2023/03/17 11:51:46;;;;;;;15.47;14.20;;;;;;;;;;4933119;29;20739;-87
2023/03/17 11:54:22;;;;;;;15.30;14.50;;;;;;;;;;4933957;29;20759;-87
2023/03/17 11:56:53;;;;;;;15.47;14.57;;;;;;;;;;4931712;29;20662;-88
2023/03/17 11:59:30;;;;;;;17.50;15.70;;;;;;;;;;4931815;29;20678;-86
2023/03/17 12:02:05;;;;;;;15.37;14.33;;;;;;;;;;4939951;29;20691;-86
2023/03/17 12:04:36;;;;;;;14.97;14.17;;;;;;;;;;4930567;29;20675;-86
2023/03/17 12:07:11;;;;;;;15.07;14.17;;;;;;;;;;4946073;29;20775;-87
2023/03/17 12:09:44;;;;;;;14.73;13.83;;;;;;;;;;4946888;29;20706;-86
2023/03/17 12:12:15;;;;;;;16.57;15.33;;;;;;;;;;4943233;29;20743;-87
2023/03/17 12:14:47;;;;;;;15.10;13.93;;;;;;;;;;4946665;29;20723;-87
2023/03/17 12:17:19;;;;;;;17.47;16.37;;;;;;;;;;4945736;28;20738;-87
2023/03/17 12:19:56;;;;;;;17.70;16.30;;;;;;;;;;4921543;29;20622;-87
2023/03/17 12:22:29;;;;;;;25.53;17.13;;;;;;;;;;4948036;29;20789;-85
2023/03/17 12:25:04;;;;;;;17.57;16.13;;;;;;;;;;4946299;29;20730;-85
2023/03/17 12:27:34;;;;;;;17.23;16.13;;;;;;;;;;4946412;29;20590;-84
2023/03/17 12:30:06;;;;;;;17.27;15.80;;;;;;;;;;4943686;29;20723;-85
2023/03/17 12:32:38;;;;;;;17.40;16.30;;;;;;;;;;4943588;29;20731;-85
2023/03/17 12:35:15;;;;;;;16.97;15.27;;;;;;;;;;4943237;29;20772;-84
2023/03/17 12:37:46;;;;;;;17.00;15.70;;;;;;;;;;4943790;29;20711;-85
2023/03/17 12:40:17;;;;;;;17.90;16.60;;;;;;;;;;4939152;29;21035;-84
2023/03/17 12:42:47;;;;;;;17.70;16.50;;;;;;;;;;4943442;29;20684;-85
2023/03/17 12:45:32;;;;;;;17.40;16.40;;;;;;;;;;4943417;29;20696;-84
2023/03/17 12:48:13;;;;;;;15.97;14.70;;;;;;;;;;4938137;29;20707;-86
2023/03/17 12:50:48;;;;;;;16.90;15.70;;;;;;;;;;4939860;29;20669;-85
2023/03/17 12:53:28;;;;;;;16.90;15.53;;;;;;;;;;4932205;29;20687;-85
2023/03/17 12:55:58;;;;;;;19.10;17.80;;;;;;;;;;4950341;28;20723;-85
2023/03/17 12:58:30;;;;;;;19.07;17.50;;;;;;;;;;4944535;29;20703;-85
2023/03/17 13:01:03;;;;;;;16.90;15.63;;;;;;;;;;4941309;29;20736;-88
2023/03/17 13:03:35;;;;;;;17.87;15.77;;;;;;;;;;4947787;29;20624;-88
2023/03/17 13:06:06;;;;;;;18.43;16.43;;;;;;;;;;4959389;29;20656;-89
2023/03/17 13:08:37;;;;;;;16.97;15.57;;;;;;;;;;4960458;29;20641;-88
2023/03/17 13:11:16;;;;;;;16.47;15.07;;;;;;;;;;4958179;29;20640;-87
2023/03/17 13:13:46;;;;;;;16.20;15.20;;;;;;;;;;4947432;29;20788;-88
2023/03/17 13:16:30;;;;;;;17.53;16.03;;;;;;;;;;4928918;29;20822;-88
2023/03/17 13:19:19;;;;;;;17.30;15.53;;;;;;;;;;4943371;29;20788;-89
2023/03/17 13:21:53;;;;;;;16.20;14.97;;;;;;;;;;4943545;29;20752;-87
2023/03/17 13:24:24;;;;;;;16.00;14.83;;;;;;;;;;4945974;29;21045;-87
2023/03/17 13:26:58;;;;;;;15.87;14.57;;;;;;;;;;4945143;29;20989;-86
2023/03/17 13:29:38;;;;;;;16.40;15.10;;;;;;;;;;4936289;29;21169;-86
2023/03/17 13:32:26;;;;;;;15.17;14.13;;;;;;;;;;4943371;29;20719;-85
2023/03/17 13:35:14;;;;;;;15.80;14.60;;;;;;;;;;4951048;28;20754;-86
2023/03/17 13:37:50;;;;;;;16.40;15.20;;;;;;;;;;4942959;29;20699;-86
2023/03/17 13:40:21;;;;;;;15.37;14.27;;;;;;;;;;4961171;29;20789;-86
2023/03/17 13:43:04;;;;;;;14.40;13.47;;;;;;;;;;4949487;29;20708;-86
2023/03/17 13:45:37;;;;;;;14.30;13.50;;;;;;;;;;4959983;29;20808;-85
2023/03/17 13:48:26;;;;;;;16.03;14.83;;;;;;;;;;4963358;28;20710;-86
2023/03/17 13:50:57;;;;;;;16.83;15.10;;;;;;;;;;4930484;29;21281;-85
2023/03/17 13:53:30;;;;;;;17.73;16.20;;;;;;;;;;4944949;29;20683;-85
2023/03/17 13:56:13;;;;;;;15.33;14.20;;;;;;;;;;4947416;29;20680;-86
2023/03/17 13:58:54;;;;;;;15.33;14.23;;;;;;;;;;4960992;29;21327;-85
2023/03/17 14:01:23;;;;;;;17.33;15.47;;;;;;;;;;4929399;29;20948;-85
2023/03/17 14:03:52;;;;;;;14.60;13.80;;;;;;;;;;4964220;29;20699;-86
2023/03/17 14:06:25;;;;;;;15.53;14.43;;;;;;;;;;4961813;29;20651;-86
2023/03/17 14:08:55;;;;;;;14.60;13.60;;;;;;;;;;4963812;28;20683;-87
2023/03/17 14:11:28;;;;;;;16.00;14.70;;;;;;;;;;4954795;29;20771;-87
2023/03/17 14:14:08;;;;;;;20.03;15.60;;;;;;;;;;4953609;29;20695;-88
2023/03/17 14:16:46;;;;;;;13.43;12.60;;;;;;;;;;4941644;28;20691;-89
2023/03/17 14:19:26;;;;;;;14.50;13.50;;;;;;;;;;4920521;29;20655;-87
2023/03/17 14:22:03;;;;;;;14.30;13.10;;;;;;;;;;4954616;29;20602;-87
2023/03/17 14:24:32;;;;;;;15.00;13.90;;;;;;;;;;4915919;29;20683;-85
2023/03/17 14:27:06;;;;;;;14.50;13.40;;;;;;;;;;4944963;29;20723;-86
2023/03/17 14:29:37;;;;;;;14.70;13.47;;;;;;;;;;4962482;29;20667;-84
2023/03/17 14:32:06;;;;;;;14.07;13.00;;;;;;;;;;4943255;28;21229;-86
2023/03/17 14:34:35;;;;;;;19.53;14.10;;;;;;;;;;4940167;29;20682;-86
2023/03/17 14:37:04;;;;;;;13.90;12.90;;;;;;;;;;4942059;29;20719;-85
2023/03/17 14:39:32;;;;;;;14.07;12.97;;;;;;;;;;4956861;29;20739;-85
2023/03/17 14:42:01;;;;;;;16.37;13.80;;;;;;;;;;4961080;29;20699;-85
2023/03/17 14:44:38;;;;;;;14.30;13.50;;;;;;;;;;4961056;29;21250;-85
2023/03/17 14:47:08;;;;;;;14.30;13.43;;;;;;;;;;4927874;29;21239;-86
2023/03/17 14:49:36;;;;;;;14.67;13.40;;;;;;;;;;4957795;29;20715;-86
2023/03/17 14:52:05;;;;;;;13.97;12.47;;;;;;;;;;4925995;29;21257;-85